• Join FlightAware (Why Join?)
  • Login
  • US Flag 
07:14PM EDT


 

Airport Tracker/Info


-or-


 

Live Flight TrackerFlight Track Log ✈ SWA167 ✈ 02-Jul-2013 ✈ KSTL - KHOU

Flight Track Log - Related Links

Times and Time Zones

All times are in EDT time to prevent confusion due to time zone crossing. See the SWA167 flight status page for this flight to view local times or setup timezone preferences in your user account.

Time Position Orientation Groundspeed Altitude Reporting Facility
EDT Latitude Longitude Course Direction KTS MPH feet Rate Location/Type
07:55PM 38.7833 -90.4333 197° South 205 236 3,600  Level Gateway (St. Louis) TRACON
07:56PM 38.7469 -90.5192 241° Southwest 263 303 7,500 3,360 Climbing Kansas City Center
07:58PM 38.6700 -90.5556 200° South 296 341 11,400 3,780 Climbing Kansas City Center
07:59PM 38.5650 -90.6006 199° South 344 396 15,400 3,600 Climbing Kansas City Center
08:00PM 38.2515 -90.6818 218° Southwest  Level FlightAware Approximate
08:00PM 38.4658 -90.6447 199° South 367 422 18,900  Level Kansas City Center
08:01PM 38.1584 -90.7700 197° South  Level FlightAware Approximate
08:01PM 38.3594 -90.6917 199° South 384 442 22,500  Level Kansas City Center
08:02PM 38.2539 -90.7381 199° South 397 457 25,200 2,520 Climbing Kansas City Center
08:03PM 38.1450 -90.7847 199° South 407 468 27,700 2,340 Climbing Kansas City Center
08:04PM 38.0336 -90.8342 199° South 416 479 30,000 2,820 Climbing Kansas City Center
08:05PM 37.8989 -90.8919 199° South 423 487 33,500 2,880 Climbing Kansas City Center
08:06PM 37.7947 -90.9347 198° South 411 473 36,000 1,920 Climbing Kansas City Center
08:07PM 37.6903 -90.9772 198° South 400 460 37,500 1,260 Climbing Kansas City Center
08:08PM 37.5819 -91.0214 198° South 398 458 38,700 1,020 Climbing Kansas City Center
08:09PM 37.4717 -91.0681 199° South 407 468 39,700 600 Climbing Kansas City Center
08:10PM 37.3611 -91.1142 198° South 414 476 40,000 120 Climbing Kansas City Center
08:11PM 37.2508 -91.1594 198° South 415 478 40,000  Level Kansas City Center
08:12PM 37.1406 -91.2056 198° South 415 478 40,000  Level Kansas City Center
08:13PM 37.0303 -91.2494 198° South 415 478 40,000  Level Kansas City Center
08:14PM 36.9008 -91.3025 198° South 409 471 40,000  Level Kansas City Center
08:15PM 36.7917 -91.3475 198° South 409 471 40,000  Level Kansas City Center
08:16PM 36.6833 -91.3911 198° South 408 470 40,000  Level Kansas City Center
08:17PM 36.5758 -91.4339 198° South 405 466 40,000  Level Kansas City Center
08:18PM 36.4642 -91.4808 199° South 409 471 40,000  Level Kansas City Center
08:19PM 36.3303 -91.5369 199° South 409 471 40,000  Level Memphis Center
08:20PM 36.2214 -91.5789 197° South 409 471 40,000  Level Memphis Center
08:21PM 36.1169 -91.6211 198° South 409 471 40,000  Level Memphis Center
08:22PM 36.0081 -91.6631 197° South 409 471 40,000  Level Memphis Center
08:23PM 35.9053 -91.7025 197° South 409 471 40,000  Level Memphis Center
08:24PM 35.7944 -91.7467 198° South 404 465 40,000  Level Memphis Center
08:25PM 35.6875 -91.7883 198° South 409 471 40,000  Level Memphis Center
08:26PM 35.5806 -91.8325 199° South 414 476 40,000  Level Memphis Center
08:27PM 35.4717 -91.8714 196° South 414 476 40,000  Level Memphis Center
08:28PM 35.3628 -91.9128 197° South 408 470 40,000  Level Memphis Center
08:29PM 35.2539 -91.9564 198° South 408 470 40,000  Level Memphis Center
08:30PM 35.1469 -91.9975 197° South 408 470 40,000  Level Memphis Center
08:31PM 35.0378 -92.0411 198° South 408 470 40,000  Level Memphis Center
08:32PM 34.9328 -92.0822 198° South 408 470 40,000  Level Memphis Center
08:33PM 34.8258 -92.1231 197° South 408 470 40,000  Level Memphis Center
08:34PM 34.7189 -92.1661 198° South 408 470 40,000  Level Memphis Center
08:35PM 34.6081 -92.1917 191° South 408 470 40,000  Level Memphis Center
08:36PM 34.4969 -92.2144 190° South 402 463 40,000  Level Memphis Center
08:37PM 34.3756 -92.2369 189° South 402 463 40,000  Level Memphis Center
08:38PM 34.2625 -92.2597 189° South 412 474 40,000  Level Memphis Center
08:39PM 34.1497 -92.2822 189° South 412 474 40,000  Level Memphis Center
08:40PM 34.0533 -92.3025 190° South 412 474 40,000  Level Memphis Center
08:41PM 33.9425 -92.3228 189° South 407 468 40,000  Level Memphis Center
08:42PM 33.8336 -92.3403 188° South 407 468 40,000  Level Memphis Center
08:43PM 33.7500 -92.3550 188° South 412 474 40,000  Level Fort Worth Center
08:44PM 33.6300 -92.3769 189° South 412 474 40,000  Level Fort Worth Center
08:45PM 33.5200 -92.3956 188° South 406 467 40,000  Level Fort Worth Center
08:46PM 33.4083 -92.4169 189° South 406 467 40,000  Level Fort Worth Center
08:47PM 33.2964 -92.4358 188° South 406 467 40,000  Level Fort Worth Center
08:48PM 33.1867 -92.4567 189° South 406 467 40,000  Level Fort Worth Center
08:49PM 33.0767 -92.4753 188° South 411 473 40,000  Level Fort Worth Center
08:50PM 32.9689 -92.4961 189° South 411 473 40,000  Level Fort Worth Center
08:52PM 32.7581 -92.5369 189° South 395 455 40,000  Level Houston Center
08:53PM 32.6492 -92.5578 189° South 396 456 40,000  Level Houston Center
08:54PM 32.5375 -92.5792 189° South 399 459 40,000  Level Houston Center
08:55PM 32.4278 -92.5997 189° South 401 461 40,000  Level Houston Center
08:56PM 32.3186 -92.6192 189° South 398 458 40,000  Level Houston Center
08:57PM 32.2100 -92.6381 188° South 396 456 40,000  Level Houston Center
08:58PM 32.0792 -92.6622 189° South 395 455 40,000  Level Houston Center
08:59PM 31.9711 -92.6861 191° South 392 451 40,000  Level Houston Center
09:00PM 31.8950 -92.7806 227° Southwest 389 448 40,000  Level Houston Center
09:01PM 31.8200 -92.8742 227° Southwest 394 453 40,000  Level Houston Center
09:02PM 31.7450 -92.9694 227° Southwest 396 456 40,000  Level Houston Center
09:03PM 31.6697 -93.0653 227° Southwest 399 459 40,000  Level Houston Center
09:04PM 31.5906 -93.1631 226° Southwest 403 464 40,000  Level Houston Center
09:05PM 31.5167 -93.2567 227° Southwest 403 464 40,000  Level Houston Center
09:06PM 31.4297 -93.3669 227° Southwest 400 460 40,000  Level Houston Center
09:07PM 31.3536 -93.4622 227° Southwest 401 461 40,000  Level Houston Center
09:08PM 31.2767 -93.5575 227° Southwest 404 465 40,000  Level Houston Center
09:09PM 31.1972 -93.6569 227° Southwest 406 467 40,000  Level Houston Center
09:10PM 31.1203 -93.7528 227° Southwest 406 467 40,000 -660 Level Houston Center
09:12PM 31.0436 -93.8486 227° Southwest 408 470 38,700 -1,920 Descending Houston Center
09:13PM 30.9672 -93.9428 227° Southwest 404 465 36,100 -3,240 Descending Houston Center
09:14PM 30.8753 -94.0547 226° Southwest 402 463 32,200 -3,120 Descending Houston Center
09:15PM 30.8006 -94.1458 226° Southwest 395 455 29,800 -2,160 Descending Houston Center
09:16PM 30.7342 -94.2256 226° Southwest 381 438 27,800 -2,280 Descending Houston Center
09:17PM 30.6556 -94.3225 227° Southwest 380 437 25,200 -2,460 Descending Houston Center
09:18PM 30.5811 -94.4125 226° Southwest 387 445 22,800 -2,460 Descending Houston Center
09:19PM 30.4994 -94.5117 226° Southwest 375 432 20,200 -2,400 Descending Houston Center
09:20PM 30.4228 -94.6186 230° Southwest 352 405 17,500 -2,100 Descending Houston Center
09:21PM 30.3683 -94.6669 217° Southwest 357 411 16,000 -1,980 Descending Houston Center
09:22PM 30.2908 -94.7303 215° Southwest 344 396 13,900 -2,340 Descending Houston Center
09:23PM 30.2497 -94.8319 245° Southwest 356 410 11,300 -1,800 Descending Houston Center
09:24PM 30.2125 -94.9283 246° West 334 384 10,300 -660 Descending Houston Center
09:25PM 30.1606 -95.0361 241° Southwest 324 373 10,000 -240 Descending Houston Center
09:26PM 30.0867 -95.0919 213° Southwest 323 372 9,900 -420 Descending Houston Center
09:27PM 30.0092 -95.1250 200° South 299 344 9,200 -960 Descending Houston Center
09:28PM 29.9331 -95.1583 201° Southwest 292 336 8,000 -600 Descending Houston Center
09:29PM 29.8564 -95.1911 200° South 295 339 8,000  Level Houston Center
09:30PM 29.7803 -95.2242 201° Southwest 294 338 8,000 -480 Level Houston Center
09:31PM 29.7033 -95.2344 187° South 280 322 7,100 -1,020 Descending Houston Center
09:32PM 29.6117 -95.2378 182° South 282 325 6,000 -900 Descending Houston Center
09:33PM 29.5517 -95.2622 200° South 251 289 5,300 -840 Descending Houston Center
09:34PM 29.5089 -95.3106 225° Southwest 231 266 4,300 -900 Descending Houston Center
09:35PM 29.5497 -95.3400 328° Northwest 189 217 3,500 -1,440 Descending Houston Center
09:36PM 29.5958 -95.3394 North 166 191 1,600 -1,560 Descending Houston Center
09:37PM 29.6239 -95.3019 49° Northeast 167 192 400 5,280 Descending Houston Center
09:38PM 29.6567 -95.2667 43° Northeast 157 181 13,000 12,360 Climbing Houston Center